createdAt,value
2023-02-05T00:00:30.336Z,103755.34
2023-02-05T00:02:58.363Z,103757.25
2023-02-05T00:05:26.442Z,103747.59
2023-02-05T00:07:55.838Z,103769.03
2023-02-05T00:10:23.922Z,103757.59
2023-02-05T00:12:51.909Z,103762.09
2023-02-05T00:15:20.109Z,103770.06
2023-02-05T00:17:48.124Z,103761.22
2023-02-05T00:20:16.143Z,103763.84
2023-02-05T00:22:44.274Z,103768.31
2023-02-05T00:25:13.716Z,103763.06
2023-02-05T00:27:41.723Z,103763.19
2023-02-05T00:30:11.054Z,103761.44
2023-02-05T00:32:39.002Z,103756.25
2023-02-05T00:35:07.307Z,103766.19
2023-02-05T00:37:35.370Z,103761.88
2023-02-05T00:40:03.538Z,103761.97
2023-02-05T00:42:33.219Z,103768.22
2023-02-05T00:45:01.398Z,103757.56
2023-02-05T00:47:29.462Z,103771.03
2023-02-05T00:49:57.857Z,103777.94
2023-02-05T00:52:26.101Z,103784.00
2023-02-05T00:54:54.874Z,103786.63
2023-02-05T00:57:24.878Z,103790.00
2023-02-05T00:59:54.615Z,103787.09
2023-02-05T01:02:24.352Z,103800.25
2023-02-05T01:04:53.294Z,103829.56
2023-02-05T01:07:21.682Z,103812.44
2023-02-05T01:09:49.973Z,103817.56
2023-02-05T01:12:18.192Z,103835.13
2023-02-05T01:14:46.372Z,103847.63
2023-02-05T01:17:17.132Z,103850.25
2023-02-05T01:19:45.097Z,103840.28
2023-02-05T01:22:14.395Z,103837.59
2023-02-05T01:24:42.343Z,103846.59
2023-02-05T01:27:10.472Z,103846.69
2023-02-05T01:29:41.790Z,103827.22
2023-02-05T01:32:10.498Z,103834.34
2023-02-05T01:34:40.058Z,103835.34
2023-02-05T01:37:08.151Z,103824.41
2023-02-05T01:39:37.513Z,103833.28
2023-02-05T01:42:08.099Z,103840.47
2023-02-05T01:44:36.166Z,103846.59
2023-02-05T01:47:04.402Z,103852.75
2023-02-05T01:49:38.950Z,103832.16
2023-02-05T01:52:12.075Z,103828.50
2023-02-05T01:54:45.944Z,103839.22
2023-02-05T01:57:19.571Z,103836.78
2023-02-05T01:59:48.840Z,103834.34
2023-02-05T02:02:19.015Z,103830.03
2023-02-05T02:04:50.470Z,103821.28
2023-02-05T02:07:22.625Z,103817.22
2023-02-05T02:09:51.678Z,103838.16
2023-02-05T02:12:23.749Z,103835.00
2023-02-05T02:14:56.878Z,103835.41
2023-02-05T02:17:27.390Z,103834.81
2023-02-05T02:20:02.900Z,103837.81
2023-02-05T02:23:08.213Z,103849.72
2023-02-05T02:26:11.643Z,103854.56
2023-02-05T02:28:46.955Z,103851.31
2023-02-05T02:31:20.343Z,103850.69
2023-02-05T02:33:55.053Z,103849.94
2023-02-05T02:36:28.004Z,103855.53
2023-02-05T02:39:02.882Z,103855.69
2023-02-05T02:41:38.328Z,103855.97
2023-02-05T02:44:13.025Z,103862.34
2023-02-05T02:46:45.235Z,103874.22
2023-02-05T02:49:16.762Z,103866.31
2023-02-05T02:51:46.664Z,103857.56
2023-02-05T02:54:17.991Z,103865.75
2023-02-05T02:56:49.042Z,103867.72
2023-02-05T02:59:21.538Z,103888.41
2023-02-05T03:01:54.052Z,103885.97
2023-02-05T03:04:30.128Z,103894.16
2023-02-05T03:07:05.577Z,103885.59
2023-02-05T03:09:40.844Z,103890.34
2023-02-05T03:12:09.098Z,103897.78
2023-02-05T03:14:39.071Z,103902.47
2023-02-05T03:17:07.257Z,103902.69
2023-02-05T03:19:35.363Z,103910.97
2023-02-05T03:22:05.760Z,103921.84
2023-02-05T03:24:33.784Z,103927.47
2023-02-05T03:27:01.930Z,103916.22
2023-02-05T03:29:32.618Z,103919.25
2023-02-05T03:32:15.239Z,103925.78
2023-02-05T03:34:52.929Z,103941.94
2023-02-05T03:37:29.786Z,103938.41
2023-02-05T03:40:09.426Z,103933.09
2023-02-05T03:42:46.717Z,103923.41
2023-02-05T03:45:28.827Z,103926.09
2023-02-05T03:48:13.210Z,103935.94
2023-02-05T03:50:47.930Z,103951.09
2023-02-05T03:53:24.038Z,103945.84
2023-02-05T03:55:56.979Z,103946.78
2023-02-05T03:58:29.423Z,103947.75
2023-02-05T04:00:57.611Z,103956.69
2023-02-05T04:03:27.261Z,103976.34
2023-02-05T04:05:56.307Z,103970.97
2023-02-05T04:08:24.293Z,103972.75
2023-02-05T04:10:52.234Z,103970.13
2023-02-05T04:13:20.363Z,103993.25
2023-02-05T04:15:49.934Z,104005.78
2023-02-05T04:18:18.115Z,104010.28
2023-02-05T04:20:47.646Z,104012.09
2023-02-05T04:23:15.650Z,104004.94
2023-02-05T04:25:43.673Z,104012.91
2023-02-05T04:28:12.446Z,104014.59
2023-02-05T04:30:40.904Z,104022.59
2023-02-05T04:33:08.774Z,104028.75
2023-02-05T04:35:36.958Z,104019.81
2023-02-05T04:38:06.593Z,104020.69
2023-02-05T04:40:34.723Z,104018.03
2023-02-05T04:43:02.760Z,104034.91
2023-02-05T04:45:33.631Z,104041.94
2023-02-05T04:48:02.302Z,104030.31
2023-02-05T04:50:30.642Z,104021.28
2023-02-05T04:52:58.593Z,104023.00
2023-02-05T04:55:28.032Z,104022.91
2023-02-05T04:57:56.059Z,104017.50
2023-02-05T05:00:24.678Z,104016.56
2023-02-05T05:02:52.886Z,104023.66
2023-02-05T05:05:21.842Z,104033.41
2023-02-05T05:07:50.096Z,104029.84
2023-02-05T05:10:18.436Z,104025.41
2023-02-05T05:12:47.983Z,104036.03
2023-02-05T05:15:15.978Z,104043.19
2023-02-05T05:17:43.951Z,104041.38
2023-02-05T05:20:12.800Z,104043.22
2023-02-05T05:22:40.832Z,104053.03
2023-02-05T05:25:08.929Z,104050.44
2023-02-05T05:27:37.012Z,104056.66
2023-02-05T05:30:07.121Z,104053.28
2023-02-05T05:32:35.146Z,104055.97
2023-02-05T05:35:03.213Z,104069.44
2023-02-05T05:37:31.391Z,104066.91
2023-02-05T05:40:16.568Z,104072.34
2023-02-05T05:43:01.794Z,104076.94
2023-02-05T05:45:31.193Z,104087.81
2023-02-05T05:47:59.222Z,104095.09
2023-02-05T05:50:27.216Z,104104.09
2023-02-05T05:52:55.259Z,104110.50
2023-02-05T05:55:23.223Z,104117.72
2023-02-05T05:57:51.161Z,104117.81
2023-02-05T06:00:19.849Z,104119.69
2023-02-05T06:02:49.366Z,104119.88
2023-02-05T06:05:17.463Z,104125.25
2023-02-05T06:07:45.479Z,104132.47
2023-02-05T06:10:14.004Z,104124.59
2023-02-05T06:12:42.019Z,104129.13
2023-02-05T06:15:10.371Z,104125.66
2023-02-05T06:17:38.513Z,104132.78
2023-02-05T06:20:08.515Z,104126.66
2023-02-05T06:22:36.864Z,104133.84
2023-02-05T06:25:06.019Z,104135.69
2023-02-05T06:27:34.606Z,104140.22
2023-02-05T06:30:02.842Z,104127.88
2023-02-05T06:32:30.861Z,104127.00
2023-02-05T06:34:58.868Z,104128.84
2023-02-05T06:37:46.137Z,104126.28
2023-02-05T06:40:18.249Z,104139.63
2023-02-05T06:42:46.487Z,104130.78
2023-02-05T06:45:14.748Z,104142.38
2023-02-05T06:47:42.764Z,104130.97
2023-02-05T06:50:11.551Z,104128.38
2023-02-05T06:52:41.016Z,104136.41
2023-02-05T06:55:09.349Z,104130.28
2023-02-05T06:57:37.460Z,104145.44
2023-02-05T07:00:06.817Z,104141.06
2023-02-05T07:02:35.090Z,104148.22
2023-02-05T07:05:03.381Z,104130.56
2023-02-05T07:07:31.504Z,104132.41
2023-02-05T07:10:01.606Z,104143.09
2023-02-05T07:12:29.821Z,104152.00
2023-02-05T07:14:57.972Z,104155.63
2023-02-05T07:17:26.488Z,104152.16
2023-02-05T07:19:54.888Z,104152.16
2023-02-05T07:22:23.074Z,104162.84
2023-02-05T07:24:51.159Z,104158.47
2023-02-05T07:27:20.725Z,104170.06
2023-02-05T07:29:50.201Z,104186.91
2023-02-05T07:32:18.383Z,104190.47
2023-02-05T07:34:46.392Z,104192.22
2023-02-05T07:37:14.582Z,104188.72
2023-02-05T07:39:43.013Z,104196.72
2023-02-05T07:42:11.225Z,104196.72
2023-02-05T07:44:40.752Z,104204.72
2023-02-05T07:47:08.801Z,104199.44
2023-02-05T07:49:37.236Z,104210.09
2023-02-05T07:52:05.641Z,104203.91
2023-02-05T07:54:33.943Z,104203.03
2023-02-05T07:57:04.909Z,104201.28
2023-02-05T07:59:34.660Z,104203.91
2023-02-05T08:02:04.200Z,104218.97
2023-02-05T08:04:33.545Z,104220.75
2023-02-05T08:07:03.275Z,104220.72
2023-02-05T08:09:31.432Z,104213.66
2023-02-05T08:11:59.928Z,104211.94
2023-02-05T08:14:27.915Z,104218.97
2023-02-05T08:16:56.034Z,104216.38
2023-02-05T08:19:26.735Z,104208.38
2023-02-05T08:21:55.991Z,104208.34
2023-02-05T08:24:24.873Z,104218.94
2023-02-05T08:26:53.069Z,104221.56
2023-02-05T08:29:21.192Z,104224.22
2023-02-05T08:31:49.286Z,104218.88
2023-02-05T08:34:18.296Z,104224.09
2023-02-05T08:36:49.469Z,104223.16
2023-02-05T08:39:17.553Z,104223.13
2023-02-05T08:41:45.643Z,104226.56
2023-02-05T08:44:13.617Z,104232.63
2023-02-05T08:46:49.653Z,104233.47
2023-02-05T08:49:20.923Z,104228.91
2023-02-05T08:51:50.476Z,104222.59
2023-02-05T08:54:18.764Z,104225.16
2023-02-05T08:56:50.238Z,104223.28
2023-02-05T08:59:18.602Z,104222.28
2023-02-05T09:01:47.194Z,104222.22
2023-02-05T09:04:15.841Z,104221.22
2023-02-05T09:06:44.191Z,104219.38
2023-02-05T09:09:14.604Z,104213.03
2023-02-05T09:11:43.502Z,104210.25
2023-02-05T09:14:11.567Z,104207.53
2023-02-05T09:16:39.726Z,104211.88
2023-02-05T09:19:08.550Z,104210.03
2023-02-05T09:21:36.719Z,104224.19
2023-02-05T09:24:05.151Z,104229.44
2023-02-05T09:26:34.861Z,104224.88
2023-02-05T09:29:02.907Z,104212.41
2023-02-05T09:31:31.366Z,104232.72
2023-02-05T09:33:59.620Z,104244.19
2023-02-05T09:36:27.554Z,104244.06
2023-02-05T09:39:11.921Z,104240.31
2023-02-05T09:41:52.309Z,104245.50
2023-02-05T09:44:36.070Z,104241.78
2023-02-05T09:47:11.135Z,104244.34
2023-02-05T09:49:48.487Z,104245.06
2023-02-05T09:52:21.136Z,104264.47
2023-02-05T09:54:54.040Z,104251.91
2023-02-05T09:57:33.375Z,104250.00
2023-02-05T10:00:01.820Z,104247.22
2023-02-05T10:02:37.833Z,104250.69
2023-02-05T10:05:14.416Z,104253.25
2023-02-05T10:07:49.597Z,104255.84
2023-02-05T10:10:25.499Z,104263.75
2023-02-05T10:13:27.720Z,104254.69
2023-02-05T10:16:23.453Z,104270.53
2023-02-05T10:19:12.942Z,104261.50
2023-02-05T10:21:57.355Z,104258.69
2023-02-05T10:24:52.602Z,104255.78
2023-02-05T10:27:25.506Z,104249.47
2023-02-05T10:30:04.531Z,104247.63
2023-02-05T10:32:47.991Z,104236.81
2023-02-05T10:35:25.214Z,104243.75
2023-02-05T10:37:57.581Z,104244.53
2023-02-05T10:40:29.788Z,104242.63
2023-02-05T10:43:04.128Z,104242.56
2023-02-05T10:45:34.728Z,104242.41
2023-02-05T10:48:27.324Z,104250.31
2023-02-05T10:51:01.321Z,104244.03
2023-02-05T10:53:30.844Z,104252.72
2023-02-05T10:56:00.525Z,104243.72
2023-02-05T10:58:41.604Z,104255.16
2023-02-05T11:01:16.751Z,104253.25
2023-02-05T11:03:54.903Z,104245.00
2023-02-05T11:06:25.748Z,104245.75
2023-02-05T11:08:54.035Z,104250.03
2023-02-05T11:11:25.872Z,104252.59
2023-02-05T11:13:58.293Z,104260.41
2023-02-05T11:16:40.047Z,104251.31
2023-02-05T11:19:21.236Z,104259.91
2023-02-05T11:21:55.540Z,104259.66
2023-02-05T11:24:27.074Z,104243.44
2023-02-05T11:27:20.927Z,104234.19
2023-02-05T11:29:49.077Z,104230.41
2023-02-05T11:32:22.606Z,104231.75
2023-02-05T11:34:51.112Z,104233.34
2023-02-05T11:37:20.208Z,104237.63
2023-02-05T11:39:55.009Z,104222.22
2023-02-05T11:42:25.488Z,104225.53
2023-02-05T11:44:56.127Z,104220.03
2023-02-05T11:47:29.592Z,104231.34
2023-02-05T11:49:58.419Z,104245.50
2023-02-05T11:52:30.160Z,104233.63
2023-02-05T11:54:58.395Z,104227.97
2023-02-05T11:57:36.231Z,104217.88
2023-02-05T12:00:21.298Z,104215.78
2023-02-05T12:02:54.224Z,104221.78
2023-02-05T12:05:27.660Z,104223.47
2023-02-05T12:08:01.636Z,104218.91
2023-02-05T12:10:38.025Z,104215.25
2023-02-05T12:13:15.290Z,104206.31
2023-02-05T12:15:54.138Z,104216.03
2023-02-05T12:18:31.570Z,104217.78
2023-02-05T12:21:12.621Z,104224.78
2023-02-05T12:24:00.939Z,104221.28
2023-02-05T12:26:35.140Z,104219.53
2023-02-05T12:29:14.114Z,104218.66
2023-02-05T12:31:54.989Z,104207.59
2023-02-05T12:34:29.931Z,104199.41
2023-02-05T12:37:22.034Z,104202.00
2023-02-05T12:39:54.916Z,104201.56
2023-02-05T12:42:33.045Z,104196.91
2023-02-05T12:45:16.040Z,104184.94
2023-02-05T12:47:56.441Z,104188.91
2023-02-05T12:50:44.800Z,104194.81
2023-02-05T12:53:38.919Z,104193.63
2023-02-05T12:56:31.104Z,104197.09
2023-02-05T12:59:03.034Z,104189.88
2023-02-05T13:01:39.254Z,104195.00
2023-02-05T13:04:11.014Z,104206.34
2023-02-05T13:06:45.890Z,104206.16
2023-02-05T13:09:20.961Z,104201.44
2023-02-05T13:11:56.894Z,104193.97
2023-02-05T13:14:29.440Z,104199.34
2023-02-05T13:17:02.847Z,104201.78
2023-02-05T13:19:34.912Z,104188.88
2023-02-05T13:22:31.382Z,104178.84
2023-02-05T13:25:27.322Z,104171.56
2023-02-05T13:28:21.028Z,104172.34
2023-02-05T13:30:54.016Z,104169.44
2023-02-05T13:33:22.095Z,104181.88
2023-02-05T13:36:04.736Z,104168.78
2023-02-05T13:38:54.452Z,104163.41
2023-02-05T13:41:38.709Z,104165.53
2023-02-05T13:44:36.049Z,104152.59
2023-02-05T13:47:24.753Z,104154.56
2023-02-05T13:50:25.650Z,104151.31
2023-02-05T13:53:11.360Z,104150.50
2023-02-05T13:56:04.922Z,104137.28
2023-02-05T13:58:38.359Z,104141.00
2023-02-05T14:01:08.698Z,104126.78
2023-02-05T14:03:39.441Z,104124.47
2023-02-05T14:06:22.974Z,104117.75
2023-02-05T14:08:58.145Z,104126.09
2023-02-05T14:11:28.070Z,104116.28
2023-02-05T14:14:24.286Z,104112.53
2023-02-05T14:16:53.919Z,104111.97
2023-02-05T14:19:25.754Z,104108.78
2023-02-05T14:22:12.831Z,104092.69
2023-02-05T14:24:46.661Z,104092.78
2023-02-05T14:27:55.410Z,104104.34
2023-02-05T14:30:49.446Z,104102.09
2023-02-05T14:33:38.297Z,104107.91
2023-02-05T14:36:33.214Z,104102.16
2023-02-05T14:39:08.204Z,104101.28
2023-02-05T14:41:50.766Z,104092.78
2023-02-05T14:44:25.088Z,104079.66
2023-02-05T14:47:04.221Z,104089.94
2023-02-05T14:49:41.538Z,104102.06
2023-02-05T14:52:22.985Z,104095.34
2023-02-05T14:54:57.403Z,104089.22
2023-02-05T14:57:29.407Z,104084.19
2023-02-05T15:00:01.575Z,104082.16
2023-02-05T15:03:11.100Z,104074.34
2023-02-05T15:05:43.322Z,104069.97
2023-02-05T15:08:17.582Z,104060.59
2023-02-05T15:10:50.501Z,104062.59
2023-02-05T15:13:19.835Z,104064.03
2023-02-05T15:16:23.657Z,104058.09
2023-02-05T15:18:55.143Z,104062.91
2023-02-05T15:21:29.736Z,104057.94
2023-02-05T15:24:02.702Z,104058.16
2023-02-05T15:26:40.977Z,104069.78
2023-02-05T15:29:14.624Z,104061.72
2023-02-05T15:31:47.627Z,104065.84
2023-02-05T15:34:31.737Z,104066.25
2023-02-05T15:37:06.478Z,104065.47
2023-02-05T15:39:41.591Z,104055.19
2023-02-05T15:42:17.453Z,104044.25
2023-02-05T15:44:45.443Z,104058.25
2023-02-05T15:47:20.858Z,104056.59
2023-02-05T15:49:52.212Z,104076.03
2023-02-05T15:52:23.567Z,104066.84
2023-02-05T15:54:52.990Z,104070.63
2023-02-05T15:57:25.485Z,104059.38
2023-02-05T15:59:54.560Z,104065.94
2023-02-05T16:02:26.692Z,104061.59
2023-02-05T16:04:57.478Z,104056.19
2023-02-05T16:07:27.761Z,104062.53
2023-02-05T16:09:58.033Z,104056.97
2023-02-05T16:12:26.076Z,104061.84
2023-02-05T16:15:05.041Z,104061.31
2023-02-05T16:17:40.212Z,104059.72
2023-02-05T16:20:26.785Z,104061.28
2023-02-05T16:22:58.801Z,104070.00
2023-02-05T16:25:42.374Z,104065.19
2023-02-05T16:28:17.016Z,104074.06
2023-02-05T16:30:49.273Z,104071.59
2023-02-05T16:33:28.478Z,104075.41
2023-02-05T16:35:58.309Z,104086.59
2023-02-05T16:38:28.344Z,104084.91
2023-02-05T16:41:02.539Z,104075.44
2023-02-05T16:43:36.357Z,104075.09
2023-02-05T16:46:26.949Z,104085.91
2023-02-05T16:48:59.512Z,104087.50
2023-02-05T16:51:33.145Z,104082.25
2023-02-05T16:54:03.465Z,104094.75
2023-02-05T16:56:34.700Z,104088.34
2023-02-05T16:59:06.416Z,104078.22
2023-02-05T17:01:39.339Z,104075.47
2023-02-05T17:04:26.717Z,104080.69
2023-02-05T17:06:57.179Z,104072.47
2023-02-05T17:09:34.068Z,104083.00
2023-02-05T17:12:28.130Z,104085.47
2023-02-05T17:14:58.689Z,104080.72
2023-02-05T17:17:27.804Z,104089.41
2023-02-05T17:20:19.135Z,104088.34
2023-02-05T17:23:08.975Z,104091.81
2023-02-05T17:25:39.332Z,104093.31
2023-02-05T17:28:09.619Z,104089.41
2023-02-05T17:30:38.149Z,104084.59
2023-02-05T17:33:08.032Z,104084.25
2023-02-05T17:35:37.513Z,104080.31
2023-02-05T17:38:05.507Z,104084.38
2023-02-05T17:40:34.435Z,104082.09
2023-02-05T17:43:03.120Z,104082.38
2023-02-05T17:45:35.491Z,104090.72
2023-02-05T17:48:04.229Z,104084.00
2023-02-05T17:50:34.817Z,104075.50
2023-02-05T17:53:07.699Z,104077.81
2023-02-05T17:55:36.101Z,104072.81
2023-02-05T17:58:06.164Z,104082.91
2023-02-05T18:00:35.471Z,104089.44
2023-02-05T18:03:05.165Z,104083.38
2023-02-05T18:05:34.812Z,104077.44
2023-02-05T18:08:26.178Z,104062.47
2023-02-05T18:10:58.857Z,104057.44
2023-02-05T18:13:28.890Z,104060.41
2023-02-05T18:16:01.966Z,104055.38
2023-02-05T18:18:37.527Z,104065.38
2023-02-05T18:21:06.302Z,104062.00
2023-02-05T18:23:38.177Z,104064.78
2023-02-05T18:26:10.023Z,104067.59
2023-02-05T18:28:39.196Z,104071.28
2023-02-05T18:31:10.586Z,104077.47
2023-02-05T18:33:39.362Z,104071.38
2023-02-05T18:36:09.692Z,104067.91
2023-02-05T18:38:38.921Z,104068.78
2023-02-05T18:41:12.049Z,104065.25
2023-02-05T18:43:40.446Z,104073.28
2023-02-05T18:46:09.149Z,104061.78
2023-02-05T18:48:37.450Z,104075.19
2023-02-05T18:51:06.431Z,104070.91
2023-02-05T18:53:34.963Z,104067.44
2023-02-05T18:56:04.652Z,104066.63
2023-02-05T18:58:36.046Z,104072.03
2023-02-05T19:01:09.746Z,104074.84
2023-02-05T19:03:40.895Z,104078.38
2023-02-05T19:06:09.750Z,104090.91
2023-02-05T19:08:38.532Z,104100.72
2023-02-05T19:11:11.597Z,104089.22
2023-02-05T19:13:41.311Z,104085.75
2023-02-05T19:16:12.822Z,104099.97
2023-02-05T19:18:42.412Z,104086.69
2023-02-05T19:21:13.606Z,104088.50
2023-02-05T19:23:43.443Z,104081.41
2023-02-05T19:26:15.466Z,104099.09
2023-02-05T19:28:47.373Z,104088.41
2023-02-05T19:31:16.722Z,104096.38
2023-02-05T19:33:45.595Z,104105.28
2023-02-05T19:36:15.054Z,104108.00
2023-02-05T19:38:43.446Z,104105.41
2023-02-05T19:41:14.580Z,104118.75
2023-02-05T19:43:51.712Z,104100.22
2023-02-05T19:46:22.382Z,104101.19
2023-02-05T19:48:52.412Z,104101.34
2023-02-05T19:51:21.068Z,104099.66
2023-02-05T19:53:49.591Z,104101.50
2023-02-05T19:56:20.063Z,104102.44
2023-02-05T19:58:51.533Z,104115.75
2023-02-05T20:01:23.776Z,104096.28
2023-02-05T20:03:52.025Z,104098.88
2023-02-05T20:06:21.593Z,104096.25
2023-02-05T20:08:49.694Z,104085.63
2023-02-05T20:11:18.965Z,104090.13
2023-02-05T20:13:47.480Z,104093.69
2023-02-05T20:16:19.114Z,104096.44
2023-02-05T20:18:48.418Z,104080.50
2023-02-05T20:21:19.285Z,104092.84
2023-02-05T20:23:47.789Z,104084.88
2023-02-05T20:26:19.115Z,104080.47
2023-02-05T20:29:06.373Z,104078.72
2023-02-05T20:31:41.625Z,104086.78
2023-02-05T20:34:17.969Z,104094.84
2023-02-05T20:36:47.720Z,104090.44
2023-02-05T20:39:17.276Z,104078.09
2023-02-05T20:41:48.234Z,104079.03
2023-02-05T20:44:17.346Z,104078.22
2023-02-05T20:46:47.106Z,104080.06
2023-02-05T20:49:16.417Z,104066.84
2023-02-05T20:51:44.965Z,104066.00
2023-02-05T20:54:13.746Z,104062.50
2023-02-05T20:56:42.331Z,104055.44
2023-02-05T20:59:11.989Z,104051.88
2023-02-05T21:01:41.780Z,104054.53
2023-02-05T21:04:12.806Z,104059.84
2023-02-05T21:06:46.031Z,104046.56
2023-02-05T21:09:14.620Z,104049.19
2023-02-05T21:11:45.932Z,104060.66
2023-02-05T21:14:18.252Z,104052.69
2023-02-05T21:16:47.864Z,104055.28
2023-02-05T21:19:28.373Z,104065.09
2023-02-05T21:22:05.361Z,104069.50
2023-02-05T21:24:36.916Z,104068.63
2023-02-05T21:27:05.848Z,104074.81
2023-02-05T21:29:35.886Z,104077.50
2023-02-05T21:34:53.941Z,104067.81
2023-02-05T21:37:24.195Z,104060.75
2023-02-05T21:40:00.741Z,104054.63
2023-02-05T21:42:36.063Z,104059.97
2023-02-05T21:45:06.214Z,104057.28
2023-02-05T21:47:36.505Z,104059.06
2023-02-05T21:50:11.350Z,104049.41
2023-02-05T21:52:42.605Z,104051.16
2023-02-05T21:55:12.396Z,104049.44
2023-02-05T21:57:43.288Z,104040.59
2023-02-05T22:00:14.229Z,104061.00
2023-02-05T22:02:42.494Z,104050.38
2023-02-05T22:05:22.328Z,104055.69
2023-02-05T22:07:55.085Z,104050.38
2023-02-05T22:10:23.212Z,104048.66
2023-02-05T22:12:52.335Z,104056.63
2023-02-05T22:15:20.730Z,104052.28
2023-02-05T22:17:49.002Z,104048.81
2023-02-05T22:20:22.394Z,104043.59
2023-02-05T22:22:50.678Z,104048.09
2023-02-05T22:25:19.150Z,104040.19
2023-02-05T22:27:47.326Z,104045.50
2023-02-05T22:30:17.545Z,104032.22
2023-02-05T22:32:48.258Z,104041.97
2023-02-05T22:35:23.311Z,104043.72
2023-02-05T22:37:52.519Z,104037.53
2023-02-05T22:40:24.003Z,104031.34
2023-02-05T22:42:52.084Z,104031.34
2023-02-05T22:45:20.398Z,104021.66
2023-02-05T22:47:48.346Z,104017.22
2023-02-05T22:50:16.928Z,104026.97
2023-02-05T22:52:46.492Z,104023.41
2023-02-05T22:55:14.432Z,104010.16
2023-02-05T22:57:42.421Z,104010.22
2023-02-05T23:00:13.181Z,104007.63
2023-02-05T23:02:41.460Z,103995.22
2023-02-05T23:05:10.446Z,103992.63
2023-02-05T23:07:38.961Z,103987.38
2023-02-05T23:10:09.958Z,103992.75
2023-02-05T23:12:38.105Z,104000.78
2023-02-05T23:15:06.797Z,104004.34
2023-02-05T23:17:36.159Z,103999.94
2023-02-05T23:20:04.578Z,104001.72
2023-02-05T23:22:32.785Z,103986.69
2023-02-05T23:25:01.693Z,103992.00
2023-02-05T23:27:33.719Z,103991.13
2023-02-05T23:30:01.815Z,103994.69
2023-02-05T23:32:30.106Z,103995.56
2023-02-05T23:34:58.156Z,104006.19
2023-02-05T23:37:26.140Z,104003.53
2023-02-05T23:39:54.224Z,103992.94
2023-02-05T23:42:22.147Z,103988.47
2023-02-05T23:44:51.565Z,103991.09
2023-02-05T23:47:19.704Z,103981.34
2023-02-05T23:49:47.661Z,103992.78
2023-02-05T23:52:15.575Z,103990.94
2023-02-05T23:54:43.563Z,103983.81
2023-02-05T23:57:11.576Z,103979.34
2023-02-05T23:59:39.525Z,103980.19
